QRM weather

Narromine Airport
New South Wales, Australia

Public forecast

Using degrees Celsius for public forecast. Weather courtesy of forecast.io.

METAR (pilot weather report)

Closest report is Dubbo City Regional Airport, 17.8 nm (32.9 km) E. Retrieved 2019/04/25 09:30 UTC (0 seconds ago):

YSDU 250930Z AUTO 15006KT 9999 // NCD 20/11 Q1018 RF00.0/000.0

TAF (pilot weather forecast)

Closest forecast is Dubbo City Regional Airport, 17.8 nm (32.9 km) E. Retrieved 2019/04/25 06:36 UTC (3 hours ago):

TAF YSDU 250450Z 2506/2524 22008KT 9999 -SHRA SCT060 FM250900 VRB03KT CAVOK